This demonstration page uses our WeatherBlox Daily Observations layout. Learn more.

39.29038, -76.61219

Hourly Observations for June 1, 2019

Temp ( °F °C ) Dew Point ( °F °C ) Humidity (%) Winds ( mph kmh ) Pressure ( in mb ) Visibility ( mi km ) Precip ( " mm )
12:54 am 00:54 undefined 75 23.9 61 16.1 62 62 undefined N/A 29.8 1009 N/A 0 0
1:54 am 01:54 undefined 74 23.3 61 16.1 64 64 undefined N/A 29.77 1008 N/A 0 0
2:54 am 02:54 undefined 73 22.8 59 15 62 62 undefined N/A 29.77 1008 N/A 0 0
3:54 am 03:54 undefined 72 22.2 59 15 64 64 undefined N/A 29.77 1008 N/A 0 0
4:54 am 04:54 undefined 72 22.2 59 15 64 64 undefined N/A 29.8 1009 N/A 0 0
5:54 am 05:54 undefined 72 22.2 58 14.4 61 61 undefined N/A 29.8 1009 N/A 0 0
6:54 am 06:54 undefined 71 21.7 56 13.3 59 59 undefined N/A 29.83 1010 N/A 0 0
7:54 am 07:54 undefined 72 22.2 56 13.3 57 57 undefined N/A 29.85 1011 N/A 0 0
8:54 am 08:54 undefined 75 23.9 56 13.3 52 52 undefined N/A 29.85 1011 N/A 0 0
9:54 am 09:54 undefined 76 24.4 56 13.3 50 50 undefined N/A 29.85 1011 N/A 0 0
10:54 am 10:54 undefined 80 26.7 58 14.4 47 47 undefined N/A 29.88 1012 N/A 0 0
11:54 am 11:54 undefined 81 27.2 57 13.9 44 44 undefined N/A 29.85 1011 N/A 0 0
12:54 pm 12:54 undefined 82 27.8 55 12.8 40 40 undefined N/A 29.83 1010 N/A 0 0
1:54 pm 13:54 undefined 82 27.8 55 12.8 40 40 undefined N/A 29.8 1009 N/A 0 0
2:54 pm 14:54 undefined 84 28.9 57 13.9 40 40 undefined N/A 29.8 1009 N/A 0 0
3:54 pm 15:54 undefined 84 28.9 58 14.4 41 41 undefined N/A 29.77 1008 N/A 0 0
4:54 pm 16:54 undefined 83 28.3 58 14.4 43 43 undefined N/A 29.77 1008 N/A 0 0
5:54 pm 17:54 undefined 81 27.2 57 13.9 44 44 undefined N/A 29.77 1008 N/A 0 0
6:54 pm 18:54 undefined 81 27.2 57 13.9 44 44 undefined N/A 29.77 1008 N/A 0 0
7:54 pm 19:54 undefined 81 27.2 51 10.6 35 35 undefined N/A 29.77 1008 N/A 0 0
8:54 pm 20:54 undefined 79 26.1 53 11.7 41 41 undefined N/A 29.77 1008 N/A 0 0
9:54 pm 21:54 undefined 78 25.6 54 12.2 43 43 undefined N/A 29.8 1009 N/A 0 0
10:54 pm 22:54 undefined 77 25 55 12.8 47 47 undefined N/A 29.8 1009 N/A 0 0

Powered by AerisWeather